Time;durP1;ratioP1;P1;durP2;ratioP2;P2;SDS_P1;SDS_P2;PMS_P1;PMS_P2;Temp;Humidity;BMP_temperature;BMP_pressure;BME280_temperature;BME280_humidity;BME280_pressure;Samples;Min_cycle;Max_cycle;Signal;HPM_P1;HPM_P2
2022/05/06 00:02:06;;;;;;;18.38;2.38;;;;;;;21.62;57.42;100076.69;7313665;19;129694;-36
2022/05/06 00:04:32;;;;;;;11.25;1.70;;;;;;;21.62;57.35;100084.53;7311075;19;129482;-39
2022/05/06 00:06:57;;;;;;;19.92;2.65;;;;;;;21.64;57.72;100074.78;7311754;19;155652;-37
2022/05/06 00:09:23;;;;;;;26.13;3.50;;;;;;;21.62;57.42;100071.47;7311703;19;153007;-38
2022/05/06 00:11:48;;;;;;;16.93;2.27;;;;;;;21.63;57.39;100070.53;7305572;19;131770;-41
2022/05/06 00:14:14;;;;;;;20.42;2.53;;;;;;;21.61;57.10;100075.06;7310774;19;129159;-37
2022/05/06 00:16:39;;;;;;;13.55;1.92;;;;;;;21.65;57.39;100073.81;7311639;19;155003;-38
2022/05/06 00:19:04;;;;;;;21.90;3.03;;;;;;;21.60;57.43;100068.13;7310612;19;155317;-40
2022/05/06 00:21:29;;;;;;;22.05;3.08;;;;;;;21.63;58.20;100073.13;7309357;19;158048;-39
2022/05/06 00:23:55;;;;;;;21.25;2.70;;;;;;;21.63;57.47;100070.53;7308757;19;159083;-39
2022/05/06 00:26:20;;;;;;;24.98;3.42;;;;;;;21.64;57.31;100072.16;7310588;19;154535;-36
2022/05/06 00:28:45;;;;;;;14.45;2.22;;;;;;;21.64;58.02;100073.94;7312250;19;146154;-38
2022/05/06 00:31:12;;;;;;;18.98;2.80;;;;;;;21.62;57.00;100066.22;7308660;19;156528;-41
2022/05/06 00:33:37;;;;;;;17.50;2.38;;;;;;;21.62;57.86;100063.63;7308828;19;130515;-40
2022/05/06 00:36:03;;;;;;;76.10;8.97;;;;;;;21.51;57.25;100063.69;7306057;19;154496;-38
2022/05/06 00:38:30;;;;;;;27.80;3.47;;;;;;;21.63;57.76;100075.75;7311698;19;129352;-36
2022/05/06 00:40:55;;;;;;;15.40;2.13;;;;;;;21.63;57.67;100078.38;7312974;19;129652;-40
2022/05/06 00:43:21;;;;;;;17.38;2.30;;;;;;;21.65;57.37;100070.41;7309293;19;137233;-40
2022/05/06 00:45:48;;;;;;;19.20;2.40;;;;;;;21.63;56.60;100075.75;7311120;19;128847;-37
2022/05/06 00:48:15;;;;;;;16.08;2.20;;;;;;;21.62;57.68;100068.84;7312173;19;129352;-39
2022/05/06 00:50:44;;;;;;;9.60;1.67;;;;;;;21.55;57.49;100059.84;7310765;19;130226;-36
2022/05/06 00:53:10;;;;;;;20.83;2.55;;;;;;;21.61;57.84;100069.81;7310673;19;132203;-40
2022/05/06 00:55:36;;;;;;;28.25;3.70;;;;;;;21.63;57.76;100072.31;7308018;19;129471;-38
2022/05/06 00:58:02;;;;;;;11.70;1.90;;;;;;;21.63;57.27;100065.28;7310312;19;128973;-38
2022/05/06 01:00:29;;;;;;;23.67;3.20;;;;;;;21.59;57.85;100065.66;7302837;19;130249;-41
2022/05/06 01:02:54;;;;;;;27.05;3.65;;;;;;;21.64;57.38;100080.03;7311202;19;130874;-38
2022/05/06 01:05:19;;;;;;;29.35;3.55;;;;;;;21.64;57.25;100074.78;7304390;19;154325;-43
2022/05/06 01:07:47;;;;;;;26.15;2.97;;;;;;;21.63;56.96;100069.69;7310476;19;148786;-37
2022/05/06 01:10:12;;;;;;;65.65;7.90;;;;;;;21.60;56.86;100068.13;7308234;19;129212;-43
2022/05/06 01:12:38;;;;;;;19.50;2.42;;;;;;;21.62;57.27;100076.69;7308503;19;129596;-37
2022/05/06 01:15:25;;;;;;;22.30;2.80;;;;;;;21.65;57.87;100076.44;7309907;19;139670;-38
2022/05/06 01:17:52;;;;;;;20.35;2.58;;;;;;;21.66;57.57;100079.88;7305656;19;129293;-38
2022/05/06 01:20:19;;;;;;;10.30;1.58;;;;;;;21.64;57.21;100089.66;7310032;19;129518;-38
2022/05/06 01:22:52;;;;;;;37.20;4.53;;;;;;;21.65;57.46;100086.09;7309328;19;129356;-41
2022/05/06 01:25:19;;;;;;;28.17;3.50;;;;;;;21.61;57.59;100088.13;7309502;19;129137;-37
2022/05/06 01:27:56;;;;;;;21.90;2.75;;;;;;;21.62;57.35;100086.31;7311156;19;129342;-37
2022/05/06 01:30:31;;;;;;;16.95;2.25;;;;;;;21.64;57.83;100085.25;7310790;19;129343;-38
2022/05/06 01:32:59;;;;;;;25.38;3.75;;;;;;;21.66;58.17;100082.50;7308594;19;129512;-37
2022/05/06 01:35:26;;;;;;;22.58;2.97;;;;;;;21.65;57.28;100086.09;7310576;19;129104;-37
2022/05/06 01:37:53;;;;;;;40.75;4.45;;;;;;;21.63;57.13;100088.00;7309020;19;129342;-40
2022/05/06 01:40:20;;;;;;;;;;;;;;;21.71;57.26;100081.19;7309772;19;129074;-40
2022/05/06 01:42:48;;;;;;;25.70;3.22;;;;;;;21.57;56.98;100078.88;7310370;19;129319;-39
2022/05/06 01:45:16;;;;;;;14.75;2.08;;;;;;;21.66;57.48;100082.50;7317784;19;129129;-41
2022/05/06 01:47:42;;;;;;;11.10;1.77;;;;;;;21.66;57.39;100095.59;7316337;19;131213;-42
2022/05/06 01:50:12;;;;;;;30.93;3.70;;;;;;;21.66;57.50;100098.22;7316863;19;129980;-43
2022/05/06 01:52:39;;;;;;;37.10;3.95;;;;;;;21.64;57.98;100093.09;7316141;19;131148;-39
2022/05/06 01:55:08;;;;;;;22.48;2.75;;;;;;;21.65;58.43;100093.94;7316222;19;128951;-39
2022/05/06 01:57:33;;;;;;;20.10;2.47;;;;;;;21.63;58.01;100088.84;7318070;19;129446;-38
2022/05/06 01:59:58;;;;;;;10.15;1.88;;;;;;;21.62;56.69;100086.31;7314033;19;158575;-40
2022/05/06 02:02:24;;;;;;;25.70;2.85;;;;;;;21.67;57.56;100095.47;7315425;19;129262;-38
2022/05/06 02:07:33;;;;;;;19.52;2.78;;;;;;;21.64;58.02;100100.13;7317821;19;129063;-38
2022/05/06 02:09:58;;;;;;;40.22;4.78;;;;;;;21.63;57.53;100088.84;7313875;19;129189;-37
2022/05/06 02:12:24;;;;;;;22.10;2.75;;;;;;;21.66;57.74;100099.03;7314839;19;130045;-40
2022/05/06 02:14:49;;;;;;;35.67;4.18;;;;;;;21.64;57.77;100095.72;7312302;19;154468;-40
2022/05/06 02:17:14;;;;;;;19.25;2.42;;;;;;;21.66;57.90;100104.28;7315187;19;154314;-38
2022/05/06 02:19:40;;;;;;;15.18;2.05;;;;;;;21.64;57.66;100102.72;7315436;19;129549;-38
2022/05/06 02:22:06;;;;;;;91.23;10.17;;;;;;;21.64;57.46;100100.94;7311354;19;130328;-38
2022/05/06 02:24:31;;;;;;;21.17;2.72;;;;;;;21.65;57.19;100102.59;7313371;19;148051;-40
2022/05/06 02:26:56;;;;;;;17.40;2.33;;;;;;;21.67;57.70;100111.16;7314863;19;141073;-41
2022/05/06 02:29:21;;;;;;;23.15;2.88;;;;;;;21.66;57.21;100099.03;7310235;19;150839;-38
2022/05/06 02:34:31;;;;;;;23.63;2.72;;;;;;;21.65;57.60;100092.13;7313426;19;128880;-41
2022/05/06 02:36:57;;;;;;;14.65;1.80;;;;;;;21.64;57.33;100093.09;7314889;19;153755;-37
2022/05/06 02:39:22;;;;;;;22.27;2.77;;;;;;;21.63;57.15;100094.06;7315270;19;129458;-37
2022/05/06 02:41:47;;;;;;;26.30;3.00;;;;;;;21.67;57.50;100097.25;7313366;19;158583;-39
2022/05/06 02:44:13;;;;;;;20.38;2.65;;;;;;;21.64;57.65;100098.34;7313084;19;154261;-37
2022/05/06 02:46:38;;;;;;;13.93;2.05;;;;;;;21.66;57.63;100093.81;7315794;19;129090;-38
2022/05/06 02:49:03;;;;;;;17.25;2.20;;;;;;;21.68;57.56;100097.09;7314773;19;155125;-38
2022/05/06 02:51:29;;;;;;;25.23;3.35;;;;;;;21.63;57.10;100099.31;7313765;19;158724;-37
2022/05/06 02:53:56;;;;;;;19.37;2.40;;;;;;;21.64;57.08;100098.34;7312546;19;129021;-38
2022/05/06 02:56:22;;;;;;;25.80;3.42;;;;;;;21.65;57.74;100086.09;7314336;19;128944;-41
2022/05/06 02:58:47;;;;;;;12.25;1.60;;;;;;;21.60;57.45;100094.31;7316648;19;129806;-37
2022/05/06 03:01:12;;;;;;;21.83;2.87;;;;;;;21.62;57.35;100095.00;7313310;19;158384;-40
2022/05/06 03:03:37;;;;;;;15.23;1.92;;;;;;;21.64;57.48;100085.25;7314191;19;129245;-39
2022/05/06 03:06:03;;;;;;;16.15;2.15;;;;;;;21.58;57.77;100075.31;7315001;19;128906;-37
2022/05/06 03:08:28;;;;;;;25.98;3.42;;;;;;;21.65;57.28;100084.28;7315710;19;129192;-38
2022/05/06 03:10:53;;;;;;;19.25;2.50;;;;;;;21.59;57.50;100082.19;7312811;19;158993;-37
2022/05/06 03:13:19;;;;;;;20.95;2.75;;;;;;;21.66;57.19;100092.97;7311723;19;154256;-41
2022/05/06 03:15:45;;;;;;;18.13;2.22;;;;;;;21.66;57.09;100090.34;7310840;19;154514;-40
2022/05/06 03:18:10;;;;;;;12.93;1.87;;;;;;;21.67;56.79;100095.47;7314489;19;130827;-38
2022/05/06 03:20:37;;;;;;;22.30;2.88;;;;;;;21.69;57.72;100096.16;7311310;19;129646;-38
2022/05/06 03:23:03;;;;;;;17.17;2.10;;;;;;;21.66;57.89;100093.81;7313628;19;129410;-40
2022/05/06 03:25:28;;;;;;;37.97;4.50;;;;;;;21.69;57.42;100095.31;7313086;19;129223;-40
2022/05/06 03:28:00;;;;;;;15.02;2.10;;;;;;;21.68;57.39;100107.56;7313737;19;157723;-38
2022/05/06 03:30:26;;;;;;;22.60;3.42;;;;;;;21.69;58.13;100104.03;7312075;19;131305;-38
2022/05/06 03:32:51;;;;;;;31.45;3.60;;;;;;;21.66;57.53;100106.91;7309017;19;130121;-39
2022/05/06 03:35:17;;;;;;;18.25;2.88;;;;;;;21.66;57.28;100099.03;7310257;19;128971;-39
2022/05/06 03:37:44;;;;;;;20.05;2.67;;;;;;;21.66;57.41;100104.28;7314208;19;129407;-38
2022/05/06 03:40:10;;;;;;;20.10;2.75;;;;;;;21.63;56.95;100109.78;7308026;19;130476;-38
2022/05/06 03:42:35;;;;;;;28.85;4.07;;;;;;;21.62;57.20;100112.50;7309551;19;128880;-40
2022/05/06 03:45:03;;;;;;;19.17;2.42;;;;;;;21.64;57.66;100114.03;7314841;19;141562;-37
2022/05/06 03:47:28;;;;;;;21.30;2.58;;;;;;;21.67;57.50;100116.41;7313788;19;129239;-37
2022/05/06 03:52:37;;;;;;;41.65;5.25;;;;;;;21.65;57.79;100120.91;7312325;19;129586;-40
2022/05/06 03:55:03;;;;;;;23.98;2.97;;;;;;;21.69;57.24;100124.94;7311384;19;153998;-37
2022/05/06 03:57:28;;;;;;;28.50;3.33;;;;;;;21.64;57.31;100127.13;7312205;19;131378;-37
2022/05/06 03:59:54;;;;;;;30.42;3.85;;;;;;;21.67;57.91;100124.25;7309597;19;158400;-38
2022/05/06 04:02:20;;;;;;;17.13;2.03;;;;;;;21.65;57.75;100118.31;7310872;19;129032;-41
2022/05/06 04:04:45;;;;;;;25.92;3.00;;;;;;;21.64;57.92;100121.88;7308326;19;130152;-37
2022/05/06 04:07:11;;;;;;;14.05;1.95;;;;;;;21.64;57.21;100134.13;7308424;19;129199;-37
2022/05/06 04:09:36;;;;;;;22.02;2.63;;;;;;;21.65;57.75;100128.75;7310430;19;158677;-41
2022/05/06 04:12:02;;;;;;;79.10;9.40;;;;;;;21.64;57.73;100128.91;7308759;19;129729;-37
2022/05/06 04:14:27;;;;;;;35.17;4.40;;;;;;;21.67;57.48;100141.72;7306236;19;129122;-37
2022/05/06 04:16:52;;;;;;;20.10;2.50;;;;;;;21.63;57.76;100143.78;7307881;19;130952;-39
2022/05/06 04:19:17;;;;;;;19.77;2.20;;;;;;;21.54;56.73;100136.69;7309791;19;158474;-37
2022/05/06 04:24:26;;;;;;;25.35;2.95;;;;;;;21.65;57.72;100154.94;7310120;19;129268;-39
2022/05/06 04:26:52;;;;;;;19.00;2.35;;;;;;;21.68;57.93;100159.91;7309705;19;158335;-37
2022/05/06 04:29:17;;;;;;;18.02;2.55;;;;;;;21.66;57.28;100156.63;7312547;19;159610;-38
2022/05/06 04:31:42;;;;;;;25.80;3.35;;;;;;;21.68;57.50;100164.34;7305999;19;129124;-42
2022/05/06 04:34:08;;;;;;;27.38;3.42;;;;;;;21.62;56.95;100160.44;7308449;19;129141;-40
2022/05/06 04:36:33;;;;;;;33.63;4.43;;;;;;;21.64;57.15;100163.75;7303556;19;159301;-39
2022/05/06 04:38:58;;;;;;;19.20;2.47;;;;;;;21.64;57.33;100163.75;7310111;19;157289;-38
2022/05/06 04:41:24;;;;;;;21.75;3.13;;;;;;;21.54;57.46;100149.75;7308645;19;140234;-38
2022/05/06 04:43:49;;;;;;;16.95;2.50;;;;;;;21.62;57.11;100170.06;7308703;19;129049;-40
2022/05/06 04:46:15;;;;;;;25.10;3.08;;;;;;;21.63;57.57;100172.56;7308314;19;129550;-41
2022/05/06 04:48:40;;;;;;;22.58;2.67;;;;;;;21.69;57.54;100172.06;7311666;19;129618;-38
2022/05/06 04:51:05;;;;;;;21.55;3.00;;;;;;;21.69;57.79;100177.28;7309749;19;153265;-39
2022/05/06 04:53:31;;;;;;;27.20;3.25;;;;;;;21.64;57.30;100179.47;7311629;19;129132;-41
2022/05/06 04:55:56;;;;;;;27.70;3.20;;;;;;;21.62;57.49;100170.91;7310416;19;129617;-37
2022/05/06 04:58:21;;;;;;;27.98;3.55;;;;;;;21.64;57.75;100178.63;7303036;19;141664;-41
2022/05/06 05:00:47;;;;;;;20.85;2.45;;;;;;;21.62;57.14;100180.53;7306198;19;130358;-38
2022/05/06 05:03:13;;;;;;;10.00;1.55;;;;;;;21.64;57.37;100179.47;7309003;19;129286;-40
2022/05/06 05:05:38;;;;;;;31.45;3.45;;;;;;;21.64;57.86;100186.47;7308113;19;143184;-37
2022/05/06 05:08:04;;;;;;;22.20;2.72;;;;;;;21.66;57.80;100192.41;7310551;19;130290;-38
2022/05/06 05:10:29;;;;;;;14.20;2.65;;;;;;;21.63;57.40;100184.81;7310403;19;129314;-37
2022/05/06 05:12:54;;;;;;;22.92;2.95;;;;;;;21.64;57.08;100189.91;7308228;19;154258;-41
2022/05/06 05:15:19;;;;;;;19.77;2.63;;;;;;;21.65;56.97;100191.56;7311256;19;130214;-41
2022/05/06 05:17:45;;;;;;;12.23;1.80;;;;;;;21.64;57.46;100189.91;7310601;19;129243;-37
2022/05/06 05:20:14;;;;;;;30.15;3.78;;;;;;;21.65;57.49;100186.34;7302636;19;129828;-37
2022/05/06 05:22:40;;;;;;;9.65;1.92;;;;;;;21.64;57.47;100195.16;7309301;19;129157;-37
2022/05/06 05:25:06;;;;;;;28.42;3.55;;;;;;;21.64;57.92;100195.16;7307859;19;129691;-39
2022/05/06 05:27:32;;;;;;;23.17;3.03;;;;;;;21.62;57.34;100202.28;7307753;19;129350;-37
2022/05/06 05:29:58;;;;;;;27.90;3.47;;;;;;;21.63;57.78;100198.75;7306727;19;129207;-41
2022/05/06 05:32:24;;;;;;;41.38;5.28;;;;;;;21.65;57.17;100198.63;7308074;19;129105;-39
2022/05/06 05:34:49;;;;;;;23.63;2.93;;;;;;;21.66;57.21;100195.88;7306823;19;129290;-39
2022/05/06 05:37:15;;;;;;;24.35;3.35;;;;;;;21.63;57.09;100201.34;7306959;19;158552;-39
2022/05/06 05:39:41;;;;;;;30.05;4.13;;;;;;;21.62;57.18;100199.69;7308781;19;129352;-37
2022/05/06 05:42:07;;;;;;;19.33;2.47;;;;;;;21.63;57.51;100198.75;7311284;19;129062;-37
2022/05/06 05:50:02;;;;;;;31.92;4.57;;;;;;;21.65;57.21;100201.22;7308712;19;128906;-38
2022/05/06 05:52:28;;;;;;;33.20;5.15;;;;;;;21.61;56.99;100205.88;7309900;19;128875;-41
2022/05/06 05:54:53;;;;;;;26.70;3.50;;;;;;;21.64;57.76;100203.00;7309305;19;130096;-38
2022/05/06 05:57:18;;;;;;;38.70;4.05;;;;;;;21.65;57.84;100207.28;7309269;19;129666;-41
2022/05/06 05:59:44;;;;;;;39.38;4.80;;;;;;;21.63;57.10;100208.38;7308853;19;155368;-37
2022/05/06 06:02:11;;;;;;;17.55;3.50;;;;;;;21.65;57.43;100202.03;7309159;19;154196;-41
2022/05/06 06:04:37;;;;;;;61.25;8.73;;;;;;;21.65;57.57;100204.66;7304777;19;130589;-40
2022/05/06 06:07:03;;;;;;;42.45;5.28;;;;;;;21.64;57.38;100200.38;7301999;19;130375;-37
2022/05/06 06:09:28;;;;;;;32.50;4.20;;;;;;;21.64;57.60;100197.78;7309082;19;128995;-38
2022/05/06 06:11:54;;;;;;;34.10;4.80;;;;;;;21.66;56.97;100201.09;7301754;19;129662;-40
2022/05/06 06:14:19;;;;;;;34.77;4.47;;;;;;;21.53;57.53;100184.75;7304859;19;158673;-41
2022/05/06 06:16:45;;;;;;;24.58;3.20;;;;;;;21.61;57.00;100199.81;7307429;19;136982;-39
2022/05/06 06:19:10;;;;;;;20.85;3.28;;;;;;;21.67;57.65;100207.16;7309755;19;129025;-40
2022/05/06 06:21:36;;;;;;;32.58;4.53;;;;;;;21.63;57.44;100213.59;7305215;19;128994;-37
2022/05/06 06:24:01;;;;;;;32.28;4.43;;;;;;;21.64;57.20;100226.56;7306830;19;129691;-38
2022/05/06 06:26:26;;;;;;;28.13;3.95;;;;;;;21.63;57.65;100224.91;7307541;19;144053;-38
2022/05/06 06:28:52;;;;;;;31.08;4.40;;;;;;;21.64;57.68;100226.56;7307654;19;155259;-37
2022/05/06 06:31:17;;;;;;;22.98;2.75;;;;;;;21.64;57.37;100221.31;7317153;19;129638;-38
2022/05/06 06:33:43;;;;;;;17.52;2.80;;;;;;;21.67;57.29;100221.06;7314543;19;157477;-41
2022/05/06 06:36:08;;;;;;;26.55;3.42;;;;;;;21.66;57.29;100218.56;7316738;19;129454;-37
2022/05/06 06:38:34;;;;;;;22.90;3.57;;;;;;;21.66;57.48;100219.41;7317126;19;146749;-38
2022/05/06 06:40:59;;;;;;;15.73;2.67;;;;;;;21.64;57.49;100220.47;7314831;19;129078;-41
2022/05/06 06:43:25;;;;;;;29.33;3.97;;;;;;;21.63;57.43;100219.69;7315694;19;129720;-42
2022/05/06 06:45:50;;;;;;;17.30;2.88;;;;;;;21.63;57.90;100219.69;7316145;19;131434;-38
2022/05/06 06:48:16;;;;;;;24.10;3.83;;;;;;;21.65;57.17;100222.97;7317459;19;130759;-38
2022/05/06 06:50:41;;;;;;;19.33;2.90;;;;;;;21.68;57.42;100222.72;7317012;19;129099;-40
2022/05/06 06:53:06;;;;;;;18.15;2.97;;;;;;;21.62;57.44;100218.00;7314855;19;143404;-41
2022/05/06 06:55:32;;;;;;;28.15;3.92;;;;;;;21.67;57.23;100230.69;7315719;19;129768;-37
2022/05/06 06:57:57;;;;;;;26.30;3.65;;;;;;;21.67;57.62;100236.78;7316997;19;129205;-42
2022/05/06 07:00:23;;;;;;;25.90;3.55;;;;;;;21.61;56.89;100234.66;7312303;19;154033;-41
2022/05/06 07:02:48;;;;;;;24.23;3.20;;;;;;;21.65;57.71;100238.69;7314979;19;129544;-37
2022/05/06 07:05:13;;;;;;;28.23;3.60;;;;;;;21.63;57.57;100240.59;7314849;19;129311;-39
2022/05/06 07:13:23;;;;;;;16.85;2.70;;;;;;;21.65;57.43;100236.06;7310616;19;129039;-38
2022/05/06 07:15:49;;;;;;;20.17;2.85;;;;;;;21.63;57.24;100238.00;7314496;19;129366;-40
2022/05/06 07:18:14;;;;;;;18.77;3.03;;;;;;;21.63;57.66;100239.78;7315358;19;132058;-39
2022/05/06 07:20:41;;;;;;;23.38;2.97;;;;;;;21.69;57.95;100244.50;7313561;19;128973;-38
2022/05/06 07:23:07;;;;;;;17.90;2.80;;;;;;;21.70;57.10;100241.75;7314424;19;129438;-37
2022/05/06 07:25:32;;;;;;;41.00;5.20;;;;;;;21.65;57.40;100241.28;7314288;19;129508;-42
2022/05/06 07:27:57;;;;;;;12.73;2.25;;;;;;;21.63;57.68;100239.78;7313417;19;154679;-38
2022/05/06 07:30:22;;;;;;;27.13;2.95;;;;;;;21.64;58.15;100244.88;7314708;19;128916;-39
2022/05/06 07:32:48;;;;;;;20.23;2.72;;;;;;;21.65;57.68;100246.53;7312974;19;157713;-39
2022/05/06 07:35:13;;;;;;;27.80;3.40;;;;;;;21.65;57.91;100248.34;7313271;19;129153;-37
2022/05/06 07:37:39;;;;;;;31.50;4.28;;;;;;;21.65;57.82;100258.81;7314557;19;129204;-38
2022/05/06 07:40:05;;;;;;;28.27;3.90;;;;;;;21.63;57.30;100253.69;7313607;19;131694;-37
2022/05/06 07:42:33;;;;;;;20.60;3.25;;;;;;;21.66;57.85;100252.59;7313137;19;129156;-40
2022/05/06 07:44:59;;;;;;;18.20;2.63;;;;;;;21.54;57.56;100238.72;7312142;19;130402;-37
2022/05/06 07:47:24;;;;;;;16.27;2.67;;;;;;;21.65;57.54;100258.81;7313940;19;129513;-38
2022/05/06 07:49:49;;;;;;;23.08;3.03;;;;;;;21.64;57.79;100257.97;7313580;19;154249;-40
2022/05/06 07:52:15;;;;;;;30.57;4.17;;;;;;;21.62;57.60;100257.25;7312010;19;158534;-37
2022/05/06 07:54:40;;;;;;;24.55;3.55;;;;;;;21.61;57.91;100255.59;7310814;19;129348;-38
2022/05/06 07:57:05;;;;;;;35.00;3.78;;;;;;;21.63;57.83;100245.84;7311046;19;154596;-38
2022/05/06 07:59:31;;;;;;;27.27;3.85;;;;;;;21.68;57.38;100242.84;7310014;19;154346;-38
2022/05/06 08:04:41;;;;;;;10.98;2.30;;;;;;;21.63;57.33;100240.59;7310999;19;128869;-41
2022/05/06 08:07:08;;;;;;;19.97;2.53;;;;;;;21.65;57.93;100238.69;7313333;19;128933;-39
2022/05/06 08:09:34;;;;;;;19.17;2.63;;;;;;;21.63;57.49;100240.59;7313595;19;128799;-37
2022/05/06 08:11:59;;;;;;;26.67;3.65;;;;;;;21.63;57.91;100245.84;7313404;19;130188;-37
2022/05/06 08:14:25;;;;;;;9.30;2.40;;;;;;;21.63;57.60;100251.06;7312160;19;129223;-37
2022/05/06 08:16:50;;;;;;;20.00;2.80;;;;;;;21.65;58.07;100249.13;7310808;19;154472;-39
2022/05/06 08:19:17;;;;;;;19.10;2.53;;;;;;;21.62;58.11;100244.16;7314353;19;128948;-40
2022/05/06 08:21:42;;;;;;;16.48;2.13;;;;;;;21.64;57.71;100237.03;7310975;19;129235;-41
2022/05/06 08:24:08;;;;;;;18.13;2.50;;;;;;;21.64;57.66;100242.25;7312157;19;129338;-37
2022/05/06 08:26:34;;;;;;;23.30;3.25;;;;;;;21.59;57.52;100244.41;7313268;19;129111;-38
2022/05/06 08:28:59;;;;;;;18.80;2.87;;;;;;;21.66;57.48;100248.22;7313366;19;129205;-36
2022/05/06 08:31:25;;;;;;;21.17;2.97;;;;;;;21.66;58.01;100245.59;7310965;19;159596;-38
2022/05/06 08:33:50;;;;;;;20.40;2.78;;;;;;;21.63;57.73;100251.06;7311451;19;129842;-41
2022/05/06 08:36:15;;;;;;;33.73;3.97;;;;;;;21.61;57.84;100252.97;7311494;19;154855;-41
2022/05/06 08:38:42;;;;;;;14.63;2.33;;;;;;;21.66;57.92;100244.75;7313889;19;139932;-41
2022/05/06 08:41:10;;;;;;;15.70;2.47;;;;;;;21.63;58.10;100247.63;7310652;19;130820;-38
2022/05/06 08:43:36;;;;;;;9.43;2.10;;;;;;;21.62;57.20;100249.41;7309566;19;129334;-38
2022/05/06 08:51:35;;;;;;;27.60;3.70;;;;;;;21.64;58.07;100251.88;7311805;19;129117;-37
2022/05/06 08:54:01;;;;;;;33.70;3.78;;;;;;;21.63;58.08;100245.84;7308221;19;131829;-37
2022/05/06 08:56:27;;;;;;;10.18;2.10;;;;;;;21.62;57.41;100261.63;7311333;19;129036;-37
2022/05/06 08:58:54;;;;;;;17.27;2.60;;;;;;;21.61;57.54;100252.13;7312292;19;128994;-38
2022/05/06 09:01:21;;;;;;;21.83;3.05;;;;;;;21.60;57.92;100251.28;7309832;19;129266;-43
2022/05/06 09:03:48;;;;;;;16.48;2.25;;;;;;;21.63;57.34;100251.06;7310343;19;129232;-38
2022/05/06 09:06:21;;;;;;;20.75;3.00;;;;;;;21.52;57.76;100239.78;7311336;19;128968;-41
2022/05/06 09:08:48;;;;;;;14.55;1.95;;;;;;;21.58;57.32;100250.63;7312903;19;129131;-37
2022/05/06 09:11:13;;;;;;;;;;;;;;;21.69;57.04;100253.19;7312735;19;130213;-39
2022/05/06 09:13:49;;;;;;;13.35;2.20;;;;;;;21.60;57.90;100248.69;7309841;19;129162;-37
2022/05/06 09:19:20;;;;;;;22.02;3.20;;;;;;;21.63;57.77;100251.06;7312589;19;129605;-37
2022/05/06 09:22:00;;;;;;;19.52;2.85;;;;;;;21.61;58.34;100246.91;7309002;19;129322;-40
2022/05/06 09:24:30;;;;;;;25.10;3.55;;;;;;;21.59;57.27;100252.25;7309925;19;129495;-40
2022/05/06 09:27:13;;;;;;;20.15;2.67;;;;;;;21.64;58.45;100254.50;7311234;19;129268;-36
2022/05/06 09:29:47;;;;;;;17.88;2.47;;;;;;;21.62;58.44;100259.03;7312499;19;128923;-38
2022/05/06 09:32:28;;;;;;;19.17;2.47;;;;;;;21.61;57.74;100252.97;7310008;19;131656;-40
2022/05/06 09:35:12;;;;;;;16.80;2.42;;;;;;;21.60;58.11;100256.53;7308358;19;129875;-36
2022/05/06 09:37:47;;;;;;;22.48;3.03;;;;;;;21.61;58.27;100252.97;7310576;19;128958;-37
2022/05/06 09:40:21;;;;;;;29.85;3.40;;;;;;;21.59;57.59;100252.25;7309553;19;128917;-40
2022/05/06 09:42:57;;;;;;;27.95;3.50;;;;;;;21.61;58.25;100247.75;7309135;19;129922;-38
2022/05/06 09:45:34;;;;;;;49.73;5.60;;;;;;;21.60;57.84;100240.84;7309394;19;129726;-41
2022/05/06 09:48:01;;;;;;;28.45;3.30;;;;;;;21.61;57.71;100242.50;7307572;19;129068;-37
2022/05/06 09:50:36;;;;;;;30.20;3.47;;;;;;;21.55;58.06;100229.09;7310425;19;129055;-37
2022/05/06 09:53:02;;;;;;;18.92;2.78;;;;;;;21.58;58.16;100241.94;7309669;19;130235;-40
2022/05/06 09:55:28;;;;;;;;;;;;;;;21.63;57.74;100240.59;7309240;19;129560;-39
2022/05/06 09:57:55;;;;;;;18.17;2.42;;;;;;;21.57;57.96;100251.56;7311229;19;129018;-38
2022/05/06 10:00:21;;;;;;;16.55;2.22;;;;;;;21.60;57.89;100240.03;7310042;19;129023;-40
2022/05/06 10:02:46;;;;;;;11.93;1.80;;;;;;;21.58;57.95;100234.91;7309278;19;133581;-38
2022/05/06 10:05:11;;;;;;;23.52;2.85;;;;;;;21.62;57.58;100233.69;7312176;19;158868;-41
2022/05/06 10:07:42;;;;;;;33.85;4.03;;;;;;;21.59;57.59;100220.88;7315366;19;154661;-37
2022/05/06 10:10:12;;;;;;;21.33;2.60;;;;;;;21.60;57.33;100221.72;7316745;19;129171;-39
2022/05/06 10:12:41;;;;;;;21.25;3.08;;;;;;;21.60;58.22;100217.28;7316577;19;129152;-38
2022/05/06 10:15:08;;;;;;;18.75;2.53;;;;;;;21.59;57.60;100213.00;7317110;19;129796;-37
2022/05/06 10:17:50;;;;;;;22.92;3.10;;;;;;;21.61;58.19;100208.50;7316077;19;129097;-38
2022/05/06 10:20:33;;;;;;;17.50;2.33;;;;;;;21.54;58.26;100189.00;7315189;19;129080;-39
2022/05/06 10:23:07;;;;;;;18.63;2.35;;;;;;;21.61;57.86;100205.03;7315422;19;130592;-37
2022/05/06 10:25:41;;;;;;;31.70;4.00;;;;;;;21.61;58.12;100205.03;7315599;19;129376;-38
2022/05/06 10:34:16;;;;;;;24.52;3.13;;;;;;;21.59;57.46;100199.09;7315930;19;128957;-37
2022/05/06 10:36:51;;;;;;;26.73;3.13;;;;;;;21.48;57.61;100179.06;7315365;19;129337;-38
2022/05/06 10:39:24;;;;;;;16.77;2.03;;;;;;;21.56;58.19;100191.50;7317320;19;128826;-39
2022/05/06 10:41:58;;;;;;;21.45;2.92;;;;;;;21.54;58.26;100186.41;7313729;19;129587;-41
2022/05/06 10:44:48;;;;;;;15.60;2.20;;;;;;;21.59;57.86;100192.09;7312873;19;158557;-38
2022/05/06 10:47:13;;;;;;;34.65;3.90;;;;;;;21.60;57.54;100193.72;7313499;19;130466;-40
2022/05/06 10:49:38;;;;;;;21.10;2.72;;;;;;;21.49;57.37;100175.47;7316533;19;129807;-37
2022/05/06 10:52:15;;;;;;;8.13;1.63;;;;;;;21.56;58.14;100189.72;7314152;19;148034;-38
2022/05/06 10:54:41;;;;;;;;;;;;;;;21.66;57.92;100189.78;7314183;19;129158;-43
2022/05/06 10:57:07;;;;;;;21.25;2.92;;;;;;;21.58;57.88;100185.19;7314946;19;130503;-38
2022/05/06 10:59:56;;;;;;;13.80;2.30;;;;;;;21.58;57.79;100190.44;7316391;19;129228;-38
2022/05/06 11:02:40;;;;;;;16.80;2.25;;;;;;;21.56;57.79;100192.34;7314089;19;129290;-37
2022/05/06 11:05:07;;;;;;;19.80;2.60;;;;;;;21.56;57.46;100191.50;7316245;19;129987;-38
2022/05/06 11:07:37;;;;;;;24.92;3.15;;;;;;;21.55;58.24;100195.88;7314000;19;130974;-38
2022/05/06 11:10:06;;;;;;;24.92;3.10;;;;;;;21.64;58.10;100192.53;7316534;19;129702;-38
2022/05/06 11:12:42;;;;;;;14.68;2.28;;;;;;;21.58;58.07;100190.44;7315037;19;128897;-39
2022/05/06 11:15:15;;;;;;;19.42;2.50;;;;;;;21.59;58.41;100181.63;7314035;19;130355;-40
2022/05/06 11:17:45;;;;;;;14.95;2.10;;;;;;;21.50;58.65;100166.66;7316048;19;130811;-37
2022/05/06 11:20:26;;;;;;;13.27;2.13;;;;;;;21.62;58.40;100185.75;7314681;19;129303;-38
2022/05/06 11:23:18;;;;;;;18.10;2.40;;;;;;;21.58;57.57;100166.88;7314357;19;129165;-38
2022/05/06 11:25:48;;;;;;;20.15;2.70;;;;;;;21.59;57.75;100186.84;7313895;19;129716;-41
2022/05/06 11:28:17;;;;;;;18.08;2.17;;;;;;;21.59;58.38;100186.84;7315409;19;130122;-40
2022/05/06 11:30:45;;;;;;;14.35;1.98;;;;;;;21.57;58.14;100183.53;7314795;19;129183;-38
2022/05/06 11:33:20;;;;;;;14.20;2.13;;;;;;;21.44;58.02;100154.09;7313920;19;128826;-38
2022/05/06 11:35:46;;;;;;;1.60;0.75;;;;;;;21.54;57.93;100173.31;7314694;19;129669;-37
2022/05/06 11:38:12;;;;;;;17.23;2.23;;;;;;;21.59;57.88;100181.63;7315051;19;130376;-38
2022/05/06 11:40:38;;;;;;;19.30;2.77;;;;;;;21.56;57.59;100181.88;7313272;19;128960;-38
2022/05/06 11:43:06;;;;;;;19.42;2.70;;;;;;;21.56;58.32;100181.03;7313279;19;128831;-38
2022/05/06 11:48:20;;;;;;;34.25;4.00;;;;;;;21.57;58.06;100173.06;7313267;19;129457;-37
2022/05/06 11:50:48;;;;;;;14.95;2.05;;;;;;;21.58;57.39;100176.50;7314332;19;128897;-38
2022/05/06 11:53:17;;;;;;;21.83;2.67;;;;;;;21.56;58.37;100170.56;7311335;19;128815;-39